createdAt,value
2022-08-10T00:01:02.060Z,2.26
2022-08-10T00:03:28.526Z,2.28
2022-08-10T00:05:55.031Z,2.39
2022-08-10T00:08:24.152Z,2.31
2022-08-10T00:10:50.703Z,2.31
2022-08-10T00:13:17.132Z,2.30
2022-08-10T00:15:52.746Z,2.46
2022-08-10T00:18:28.907Z,2.12
2022-08-10T00:21:02.515Z,2.36
2022-08-10T00:23:28.963Z,2.21
2022-08-10T00:25:55.343Z,2.40
2022-08-10T00:28:21.743Z,2.41
2022-08-10T00:30:48.200Z,2.45
2022-08-10T00:33:14.626Z,2.42
2022-08-10T00:35:41.026Z,2.21
2022-08-10T00:38:09.001Z,2.37
2022-08-10T00:40:38.042Z,2.40
2022-08-10T00:43:04.636Z,2.31
2022-08-10T00:45:31.063Z,2.24
2022-08-10T00:47:57.450Z,2.23
2022-08-10T00:50:23.848Z,2.31
2022-08-10T00:52:50.323Z,2.34
2022-08-10T00:55:16.693Z,2.51
2022-08-10T00:57:43.086Z,2.38
2022-08-10T01:00:09.505Z,2.21
2022-08-10T01:02:36.224Z,2.12
2022-08-10T01:05:03.138Z,2.33
2022-08-10T01:07:29.885Z,2.17
2022-08-10T01:09:57.317Z,2.37
2022-08-10T01:12:34.174Z,2.24
2022-08-10T01:15:06.571Z,2.34
2022-08-10T01:17:49.845Z,2.30
2022-08-10T01:20:30.181Z,2.43
2022-08-10T01:22:57.675Z,2.31
2022-08-10T01:25:24.113Z,2.26
2022-08-10T01:27:50.505Z,2.42
2022-08-10T01:30:16.929Z,2.52
2022-08-10T01:32:43.434Z,2.34
2022-08-10T01:35:09.865Z,2.15
2022-08-10T01:37:36.576Z,2.30
2022-08-10T01:40:03.207Z,2.25
2022-08-10T01:42:29.620Z,2.28
2022-08-10T01:44:56.022Z,2.24
2022-08-10T01:47:23.587Z,1.99
2022-08-10T01:49:50.144Z,2.09
2022-08-10T01:52:18.206Z,2.20
2022-08-10T01:54:44.871Z,2.24
2022-08-10T01:57:11.298Z,2.31
2022-08-10T01:59:37.719Z,2.28
2022-08-10T02:02:04.177Z,2.28
2022-08-10T02:04:30.611Z,2.13
2022-08-10T02:06:57.009Z,2.37
2022-08-10T02:09:23.454Z,2.14
2022-08-10T02:12:06.675Z,2.25
2022-08-10T02:14:35.009Z,2.16
2022-08-10T02:17:01.441Z,2.14
2022-08-10T02:19:27.836Z,2.24
2022-08-10T02:22:35.239Z,2.17
2022-08-10T02:24:40.787Z,2.29
2022-08-10T02:27:07.248Z,2.34
2022-08-10T02:29:33.646Z,2.07
2022-08-10T02:32:00.026Z,2.30
2022-08-10T02:34:26.641Z,2.14
2022-08-10T02:36:53.101Z,2.28
2022-08-10T02:39:19.554Z,2.16
2022-08-10T02:42:18.889Z,2.45
2022-08-10T02:45:22.578Z,2.07
2022-08-10T02:47:19.162Z,2.06
2022-08-10T02:49:45.599Z,2.26
2022-08-10T02:52:11.980Z,2.17
2022-08-10T02:54:38.420Z,2.16
2022-08-10T02:57:04.835Z,2.33
2022-08-10T02:59:39.925Z,2.21
2022-08-10T03:02:06.938Z,2.24
2022-08-10T03:04:56.043Z,2.02
2022-08-10T03:07:19.703Z,2.29
2022-08-10T03:10:13.104Z,2.21
2022-08-10T03:12:41.034Z,2.27
2022-08-10T03:15:07.407Z,2.20
2022-08-10T03:17:33.796Z,2.53
2022-08-10T03:20:33.773Z,2.30
2022-08-10T03:22:46.682Z,2.23
2022-08-10T03:25:13.142Z,2.51
2022-08-10T03:27:39.531Z,2.30
2022-08-10T03:30:32.622Z,2.28
2022-08-10T03:32:52.545Z,2.35
2022-08-10T03:35:20.237Z,2.46
2022-08-10T03:37:46.662Z,2.32
2022-08-10T03:40:13.182Z,2.55
2022-08-10T03:42:39.717Z,2.62
2022-08-10T03:45:06.119Z,2.42
2022-08-10T03:47:32.645Z,2.37
2022-08-10T03:49:59.021Z,2.18
2022-08-10T03:52:31.969Z,2.49
2022-08-10T03:54:58.427Z,2.34
2022-08-10T03:57:24.799Z,2.26
2022-08-10T03:59:51.201Z,2.44
2022-08-10T04:02:45.242Z,2.39
2022-08-10T04:05:03.987Z,2.38
2022-08-10T04:07:30.614Z,2.49
2022-08-10T04:09:58.893Z,2.70
2022-08-10T04:12:25.378Z,2.34
2022-08-10T04:14:53.742Z,2.38
2022-08-10T04:18:02.762Z,2.56
2022-08-10T04:20:06.812Z,2.47
2022-08-10T04:22:33.212Z,2.62
2022-08-10T04:24:59.594Z,2.56
2022-08-10T04:27:26.142Z,2.45
2022-08-10T04:29:52.581Z,2.48
2022-08-10T04:32:18.966Z,2.50
2022-08-10T04:34:45.504Z,2.66
2022-08-10T04:37:12.004Z,2.59
2022-08-10T04:39:38.441Z,2.57
2022-08-10T04:42:04.878Z,2.60
2022-08-10T04:44:31.268Z,2.36
2022-08-10T04:46:59.128Z,2.82
2022-08-10T04:49:55.003Z,2.45
2022-08-10T04:52:12.400Z,2.66
2022-08-10T04:54:38.858Z,2.71
2022-08-10T04:57:05.694Z,2.99
2022-08-10T04:59:32.078Z,3.00
2022-08-10T05:02:29.313Z,2.76
2022-08-10T05:04:44.937Z,2.80
2022-08-10T05:07:15.898Z,3.00
2022-08-10T05:10:03.823Z,2.83
2022-08-10T05:12:29.979Z,2.80
2022-08-10T05:14:56.643Z,2.85
2022-08-10T05:17:23.045Z,2.83
2022-08-10T05:20:03.227Z,2.83
2022-08-10T05:22:32.400Z,2.74
2022-08-10T05:24:58.852Z,2.66
2022-08-10T05:27:25.383Z,2.72
2022-08-10T05:30:02.543Z,2.64
2022-08-10T05:32:29.681Z,2.78
2022-08-10T05:34:56.086Z,2.78
2022-08-10T05:38:12.090Z,2.85
2022-08-10T05:40:09.025Z,2.85
2022-08-10T05:42:35.596Z,3.00
2022-08-10T05:45:02.132Z,2.97
2022-08-10T05:47:28.615Z,2.85
2022-08-10T05:50:15.018Z,3.21
2022-08-10T05:52:41.466Z,3.24
2022-08-10T05:55:07.865Z,2.83
2022-08-10T05:57:34.242Z,2.59
2022-08-10T06:00:35.616Z,2.35
2022-08-10T06:02:47.405Z,2.14
2022-08-10T06:05:14.035Z,2.17
2022-08-10T06:07:40.448Z,2.06
2022-08-10T06:10:10.018Z,2.18
2022-08-10T06:12:54.966Z,2.19
2022-08-10T06:15:50.184Z,2.25
2022-08-10T06:18:09.698Z,2.04
2022-08-10T06:20:36.414Z,2.08
2022-08-10T06:23:02.802Z,2.22
2022-08-10T06:26:08.468Z,2.19
2022-08-10T06:28:15.711Z,2.18
2022-08-10T06:30:42.199Z,2.01
2022-08-10T06:33:08.613Z,2.17
2022-08-10T06:35:34.994Z,1.94
2022-08-10T06:38:02.928Z,2.11
2022-08-10T06:40:29.339Z,2.00
2022-08-10T06:42:55.833Z,2.32
2022-08-10T06:45:22.370Z,2.18
2022-08-10T06:47:48.767Z,2.15
2022-08-10T06:50:15.181Z,2.10
2022-08-10T06:53:01.346Z,2.27
2022-08-10T06:55:40.163Z,1.97
2022-08-10T06:58:15.770Z,2.10
2022-08-10T07:00:42.281Z,2.24
2022-08-10T07:03:08.717Z,2.13
2022-08-10T07:05:35.212Z,2.28
2022-08-10T07:08:01.891Z,2.08
2022-08-10T07:10:46.092Z,2.02
2022-08-10T07:13:13.028Z,2.14
2022-08-10T07:15:59.703Z,2.20
2022-08-10T07:18:25.986Z,2.20
2022-08-10T07:20:53.871Z,2.22
2022-08-10T07:23:57.634Z,2.24
2022-08-10T07:26:06.713Z,1.90
2022-08-10T07:28:33.127Z,1.89
2022-08-10T07:30:59.600Z,1.98
2022-08-10T07:33:26.161Z,1.97
2022-08-10T07:35:52.583Z,2.17
2022-08-10T07:38:18.964Z,2.51
2022-08-10T07:40:45.499Z,2.36
2022-08-10T07:43:11.935Z,2.36
2022-08-10T07:45:38.386Z,2.23
2022-08-10T07:48:07.811Z,2.25
2022-08-10T07:50:35.465Z,2.18
2022-08-10T07:53:02.754Z,2.40
2022-08-10T07:56:01.646Z,2.09
2022-08-10T07:58:17.327Z,2.10
2022-08-10T08:00:43.760Z,2.28
2022-08-10T08:03:10.155Z,2.29
2022-08-10T08:05:59.179Z,2.26
2022-08-10T08:08:23.328Z,2.34
2022-08-10T08:10:49.703Z,2.31
2022-08-10T08:13:16.108Z,2.22
2022-08-10T08:16:17.836Z,2.14
2022-08-10T08:18:28.987Z,2.33
2022-08-10T08:20:55.457Z,2.59
2022-08-10T08:24:30.288Z,2.23
2022-08-10T08:26:08.411Z,2.01
2022-08-10T08:28:34.793Z,2.38
2022-08-10T08:31:01.237Z,2.01
2022-08-10T08:33:42.146Z,2.06
2022-08-10T08:36:09.133Z,2.29
2022-08-10T08:38:35.584Z,2.14
2022-08-10T08:41:02.029Z,2.34
2022-08-10T08:43:31.388Z,2.12
2022-08-10T08:46:01.575Z,2.46
2022-08-10T08:48:28.509Z,2.11
2022-08-10T08:50:57.596Z,2.04
2022-08-10T08:53:24.379Z,2.24
2022-08-10T08:56:10.858Z,2.22
2022-08-10T08:58:37.383Z,2.29
2022-08-10T09:01:03.968Z,2.34
2022-08-10T09:03:30.366Z,2.13
2022-08-10T09:05:58.861Z,2.38
2022-08-10T09:08:26.385Z,2.30
2022-08-10T09:10:52.767Z,2.25
2022-08-10T09:13:19.192Z,2.19
2022-08-10T09:15:45.590Z,2.31
2022-08-10T09:18:12.126Z,2.37
2022-08-10T09:20:38.579Z,2.23
2022-08-10T09:23:04.977Z,2.16
2022-08-10T09:25:31.431Z,2.25
2022-08-10T09:27:57.962Z,2.31
2022-08-10T09:30:29.603Z,2.38
2022-08-10T09:36:20.171Z,2.47
2022-08-10T09:36:21.258Z,2.24
2022-08-10T09:38:32.368Z,2.42
2022-08-10T09:41:04.002Z,2.48
2022-08-10T09:43:32.870Z,2.45
2022-08-10T09:45:59.247Z,2.30
2022-08-10T09:48:25.625Z,2.64
2022-08-10T09:51:41.681Z,2.55
2022-08-10T09:53:38.525Z,2.24
2022-08-10T09:56:19.143Z,2.24
2022-08-10T09:58:47.835Z,2.26
2022-08-10T10:01:22.498Z,2.31
2022-08-10T10:04:00.642Z,2.37
2022-08-10T10:06:27.143Z,2.40
2022-08-10T10:08:58.260Z,2.47
2022-08-10T10:11:36.219Z,2.78
2022-08-10T10:14:06.445Z,2.54
2022-08-10T10:16:34.613Z,2.52
2022-08-10T10:19:01.178Z,2.41
2022-08-10T10:21:55.427Z,2.45
2022-08-10T10:24:22.404Z,2.31
2022-08-10T10:26:49.295Z,2.40
2022-08-10T10:29:44.912Z,2.35
2022-08-10T10:32:02.147Z,2.44
2022-08-10T10:34:28.594Z,2.42
2022-08-10T10:36:55.093Z,2.39
2022-08-10T10:39:24.098Z,2.29
2022-08-10T10:41:57.441Z,2.67
2022-08-10T10:44:30.703Z,2.84
2022-08-10T10:46:57.586Z,2.99
2022-08-10T10:49:24.029Z,2.90
2022-08-10T10:51:50.415Z,3.20
2022-08-10T10:54:19.862Z,2.65
2022-08-10T10:56:46.241Z,2.74
2022-08-10T10:59:33.307Z,2.49
2022-08-10T11:01:59.087Z,2.48
2022-08-10T11:04:25.702Z,2.63
2022-08-10T11:06:52.136Z,2.41
2022-08-10T11:10:05.480Z,2.62
2022-08-10T11:12:05.635Z,2.46
2022-08-10T11:14:32.147Z,2.51
2022-08-10T11:17:00.240Z,2.53
2022-08-10T11:19:26.912Z,2.39
2022-08-10T11:22:16.277Z,2.48
2022-08-10T11:24:49.795Z,2.24
2022-08-10T11:27:21.538Z,2.30
2022-08-10T11:29:49.708Z,2.63
2022-08-10T11:32:21.093Z,2.64
2022-08-10T11:35:11.626Z,2.56
2022-08-10T11:38:31.669Z,2.42
2022-08-10T11:40:20.787Z,2.50
2022-08-10T11:42:47.219Z,2.57
2022-08-10T11:45:13.597Z,2.57
2022-08-10T11:47:39.986Z,2.37
2022-08-10T11:50:06.437Z,2.45
2022-08-10T11:52:32.856Z,2.60
2022-08-10T11:54:59.265Z,2.53
2022-08-10T11:57:25.717Z,2.58
2022-08-10T12:00:12.077Z,2.56
2022-08-10T12:02:38.786Z,2.67
2022-08-10T12:05:05.311Z,2.35
2022-08-10T12:10:02.098Z,2.65
2022-08-10T12:10:18.242Z,2.56
2022-08-10T12:12:44.640Z,2.74
2022-08-10T12:15:11.031Z,2.53
2022-08-10T12:17:37.537Z,2.50
2022-08-10T12:20:04.162Z,2.55
2022-08-10T12:22:30.588Z,2.63
2022-08-10T12:24:58.209Z,2.69
2022-08-10T12:27:24.622Z,2.77
2022-08-10T12:29:51.054Z,2.52
2022-08-10T12:32:17.561Z,2.50
2022-08-10T12:34:51.805Z,2.41
2022-08-10T12:37:18.284Z,2.34
2022-08-10T12:39:44.784Z,2.67
2022-08-10T12:42:11.253Z,2.63
2022-08-10T12:44:57.655Z,2.64
2022-08-10T12:47:24.063Z,2.80
2022-08-10T12:50:30.772Z,2.62
2022-08-10T12:52:37.092Z,2.67
2022-08-10T12:55:03.567Z,2.87
2022-08-10T12:57:29.953Z,2.94
2022-08-10T12:59:56.379Z,2.77
2022-08-10T13:02:22.819Z,2.86
2022-08-10T13:04:49.269Z,2.81
2022-08-10T13:08:25.393Z,2.63
2022-08-10T13:10:03.668Z,2.67
2022-08-10T13:12:35.232Z,2.59
2022-08-10T13:15:45.158Z,2.83
2022-08-10T13:17:52.510Z,2.83
2022-08-10T13:20:19.262Z,2.70
2022-08-10T13:22:45.669Z,2.86
2022-08-10T13:25:12.144Z,2.76
2022-08-10T13:28:01.243Z,2.59
2022-08-10T13:30:37.423Z,2.80
2022-08-10T13:33:04.720Z,2.70
2022-08-10T13:35:31.166Z,2.95
2022-08-10T13:37:57.655Z,2.74
2022-08-10T13:40:24.179Z,3.06
2022-08-10T13:42:50.683Z,2.86
2022-08-10T13:45:17.052Z,2.79
2022-08-10T13:47:48.639Z,2.79
2022-08-10T13:50:16.289Z,2.80
2022-08-10T13:52:45.716Z,2.58
2022-08-10T13:55:12.107Z,2.64
2022-08-10T13:57:47.527Z,2.53
2022-08-10T14:00:33.692Z,2.53
2022-08-10T14:03:00.557Z,2.49
2022-08-10T14:05:26.965Z,2.93
2022-08-10T14:08:00.589Z,2.57
2022-08-10T14:11:08.620Z,2.70
2022-08-10T14:13:14.080Z,2.69
2022-08-10T14:15:40.652Z,2.85
2022-08-10T14:18:07.022Z,2.68
2022-08-10T14:20:33.485Z,2.75
2022-08-10T14:23:00.093Z,2.78
2022-08-10T14:25:26.478Z,2.57
2022-08-10T14:28:02.262Z,2.33
2022-08-10T14:30:31.113Z,2.66
2022-08-10T14:32:57.896Z,2.66
2022-08-10T14:36:19.217Z,2.51
2022-08-10T14:38:10.839Z,2.61
2022-08-10T14:40:37.246Z,2.59
2022-08-10T14:43:03.666Z,2.57
2022-08-10T14:45:30.202Z,2.38
2022-08-10T14:48:00.880Z,2.50
2022-08-10T14:50:32.475Z,2.48
2022-08-10T14:52:59.707Z,2.55
2022-08-10T14:55:26.094Z,2.57
2022-08-10T14:58:20.046Z,2.32
2022-08-10T15:00:42.491Z,2.16
2022-08-10T15:03:11.178Z,2.42
2022-08-10T15:05:59.095Z,2.32
2022-08-10T15:08:25.797Z,2.24
2022-08-10T15:10:52.208Z,2.33
2022-08-10T15:13:35.010Z,2.52
2022-08-10T15:16:12.597Z,2.31
2022-08-10T15:18:39.957Z,2.49
2022-08-10T15:21:17.212Z,2.31
2022-08-10T15:24:04.493Z,2.40
2022-08-10T15:26:30.646Z,2.33
2022-08-10T15:29:23.259Z,2.75
2022-08-10T15:31:49.679Z,2.47
2022-08-10T15:34:16.492Z,2.45
2022-08-10T15:36:42.926Z,2.44
2022-08-10T15:39:47.760Z,2.44
2022-08-10T15:41:58.078Z,2.31
2022-08-10T15:44:26.090Z,2.24
2022-08-10T15:46:52.495Z,2.14
2022-08-10T15:49:19.112Z,2.41
2022-08-10T15:51:53.509Z,2.46
2022-08-10T15:54:33.300Z,2.45
2022-08-10T15:57:00.695Z,2.36
2022-08-10T15:59:27.142Z,2.59
2022-08-10T16:02:13.201Z,2.50
2022-08-10T16:04:40.070Z,2.31
2022-08-10T16:07:06.555Z,2.24
2022-08-10T16:10:23.796Z,2.18
2022-08-10T16:12:30.092Z,2.22
2022-08-10T16:14:56.727Z,2.07
2022-08-10T16:17:24.743Z,1.94
2022-08-10T16:19:51.132Z,1.91
2022-08-10T16:22:36.111Z,2.18
2022-08-10T16:25:03.888Z,2.33
2022-08-10T16:27:30.326Z,2.32
2022-08-10T16:29:57.107Z,2.59
2022-08-10T16:32:23.652Z,2.35
2022-08-10T16:34:50.081Z,2.22
2022-08-10T16:37:16.487Z,2.26
2022-08-10T16:39:57.922Z,2.47
2022-08-10T16:42:27.030Z,2.44
2022-08-10T16:44:53.461Z,2.25
2022-08-10T16:47:24.021Z,2.37
2022-08-10T16:49:53.221Z,2.33
2022-08-10T16:52:19.704Z,2.29
2022-08-10T16:54:46.098Z,2.34
2022-08-10T16:57:16.614Z,2.49
2022-08-10T16:59:43.055Z,2.22
2022-08-10T17:02:09.478Z,2.33
2022-08-10T17:04:35.933Z,2.49
2022-08-10T17:07:02.341Z,2.36
2022-08-10T17:09:28.745Z,2.45
2022-08-10T17:11:55.213Z,2.38
2022-08-10T17:14:21.605Z,2.33
2022-08-10T17:16:48.030Z,2.12
2022-08-10T17:19:14.521Z,2.13
2022-08-10T17:21:50.965Z,2.06
2022-08-10T17:24:18.683Z,2.24
2022-08-10T17:26:45.120Z,2.32
2022-08-10T17:29:50.540Z,2.20
2022-08-10T17:32:00.727Z,2.17
2022-08-10T17:34:27.142Z,2.13
2022-08-10T17:36:53.523Z,2.09
2022-08-10T17:39:20.031Z,1.97
2022-08-10T17:41:46.812Z,1.99
2022-08-10T17:44:13.363Z,2.08
2022-08-10T17:46:39.791Z,2.16
2022-08-10T17:49:06.173Z,2.04
2022-08-10T17:51:32.649Z,2.17
2022-08-10T17:53:59.208Z,2.29
2022-08-10T17:56:25.594Z,2.15
2022-08-10T17:58:51.959Z,2.44
2022-08-10T18:01:41.533Z,2.30
2022-08-10T18:04:04.953Z,2.59
2022-08-10T18:06:31.358Z,2.56
2022-08-10T18:08:57.762Z,2.16
2022-08-10T18:11:25.198Z,2.26
2022-08-10T18:13:55.715Z,2.39
2022-08-10T18:16:23.165Z,2.50
2022-08-10T18:18:49.576Z,2.72
2022-08-10T18:21:26.581Z,2.45
2022-08-10T18:23:57.086Z,2.16
2022-08-10T18:26:23.551Z,2.32
2022-08-10T18:28:50.044Z,2.25
2022-08-10T18:31:16.411Z,2.43
2022-08-10T18:33:42.818Z,2.36
2022-08-10T18:36:09.270Z,2.33
2022-08-10T18:38:35.711Z,2.37
2022-08-10T18:41:02.139Z,2.19
2022-08-10T18:44:07.554Z,2.37
2022-08-10T18:46:14.981Z,2.27
2022-08-10T18:48:41.434Z,2.22
2022-08-10T18:51:07.886Z,2.21
2022-08-10T18:53:34.338Z,2.27
2022-08-10T18:56:10.147Z,2.17
2022-08-10T18:58:36.909Z,2.31
2022-08-10T19:01:03.391Z,2.31
2022-08-10T19:03:29.840Z,2.13
2022-08-10T19:05:56.222Z,2.22
2022-08-10T19:08:30.057Z,2.23
2022-08-10T19:10:57.334Z,2.20
2022-08-10T19:13:23.772Z,2.25
2022-08-10T19:15:50.150Z,2.24
2022-08-10T19:18:16.533Z,2.34
2022-08-10T19:20:43.024Z,2.32
2022-08-10T19:23:09.448Z,2.35
2022-08-10T19:26:42.071Z,2.10
2022-08-10T19:28:22.291Z,2.31
2022-08-10T19:30:48.707Z,2.09
2022-08-10T19:33:15.175Z,2.26
2022-08-10T19:36:04.125Z,2.18
2022-08-10T19:38:32.953Z,2.18
2022-08-10T19:41:00.054Z,2.27
2022-08-10T19:44:00.354Z,2.31
2022-08-10T19:46:27.466Z,2.04
2022-08-10T19:48:54.704Z,2.38
2022-08-10T19:51:21.103Z,2.08
2022-08-10T19:53:47.544Z,2.10
2022-08-10T19:56:33.040Z,2.12
2022-08-10T19:59:00.357Z,2.13
2022-08-10T20:01:26.885Z,2.16
2022-08-10T20:04:14.805Z,2.24
2022-08-10T20:06:41.207Z,2.25
2022-08-10T20:09:07.686Z,2.27
2022-08-10T20:11:44.421Z,2.12
2022-08-10T20:14:21.553Z,2.16
2022-08-10T20:16:48.814Z,2.19
2022-08-10T20:19:15.263Z,2.13
2022-08-10T20:21:41.660Z,1.90
2022-08-10T20:24:10.441Z,2.38
2022-08-10T20:26:36.834Z,2.28
2022-08-10T20:29:03.214Z,2.17
2022-08-10T20:31:29.765Z,2.21
2022-08-10T20:34:00.359Z,2.01
2022-08-10T20:36:27.783Z,1.86
2022-08-10T20:38:54.229Z,2.04
2022-08-10T20:41:20.993Z,2.21
2022-08-10T20:43:47.393Z,2.19
2022-08-10T20:46:13.830Z,2.06
2022-08-10T20:48:40.206Z,2.39
2022-08-10T20:51:06.583Z,2.19
2022-08-10T20:53:33.024Z,2.09
2022-08-10T20:55:59.453Z,2.14
2022-08-10T20:58:25.827Z,1.98
2022-08-10T21:00:52.450Z,2.05
2022-08-10T21:03:22.084Z,1.99
2022-08-10T21:05:52.654Z,2.20
2022-08-10T21:08:20.088Z,2.17
2022-08-10T21:10:46.496Z,2.04
2022-08-10T21:13:12.952Z,2.17
2022-08-10T21:15:42.754Z,2.07
2022-08-10T21:18:09.229Z,1.94
2022-08-10T21:20:35.647Z,1.94
2022-08-10T21:23:05.312Z,2.03
2022-08-10T21:25:32.152Z,2.15
2022-08-10T21:27:59.548Z,2.13
2022-08-10T21:30:26.009Z,1.95
2022-08-10T21:32:54.000Z,2.06
2022-08-10T21:35:36.466Z,2.12
2022-08-10T21:38:04.450Z,2.00
2022-08-10T21:43:17.233Z,2.11
2022-08-10T21:45:59.362Z,1.95
2022-08-10T21:48:30.107Z,1.96
2022-08-10T21:51:14.859Z,1.91
2022-08-10T21:53:50.605Z,1.85
2022-08-10T21:56:16.975Z,2.25
2022-08-10T21:58:43.368Z,1.93
2022-08-10T22:01:09.778Z,1.89
2022-08-10T22:03:40.059Z,1.92
2022-08-10T22:06:06.826Z,1.90
2022-08-10T22:08:34.344Z,2.03
2022-08-10T22:11:00.738Z,2.12
2022-08-10T22:13:27.143Z,2.03
2022-08-10T22:19:01.648Z,1.78
2022-08-10T22:21:29.581Z,2.13
2022-08-10T22:24:18.940Z,2.00
2022-08-10T22:27:01.257Z,2.05
2022-08-10T22:31:27.487Z,1.92
2022-08-10T22:31:28.727Z,1.76
2022-08-10T22:31:28.960Z,2.07
2022-08-10T22:32:14.462Z,2.00
2022-08-10T22:34:40.857Z,1.95
2022-08-10T22:37:07.236Z,1.89
2022-08-10T22:40:11.473Z,1.96
2022-08-10T22:42:20.101Z,1.72
2022-08-10T22:44:46.513Z,1.82
2022-08-10T22:47:12.924Z,1.99
2022-08-10T22:49:39.356Z,2.01
2022-08-10T22:52:05.870Z,1.98
2022-08-10T22:54:32.249Z,1.80
2022-08-10T22:56:58.732Z,1.80
2022-08-10T22:59:25.149Z,1.70
2022-08-10T23:02:08.718Z,1.95
2022-08-10T23:04:36.198Z,1.86
2022-08-10T23:07:03.441Z,1.94
2022-08-10T23:09:29.821Z,2.04
2022-08-10T23:11:56.250Z,1.91
2022-08-10T23:14:22.660Z,1.95
2022-08-10T23:16:49.047Z,1.75
2022-08-10T23:19:15.476Z,2.05
2022-08-10T23:21:47.740Z,1.88
2022-08-10T23:24:28.266Z,1.71
2022-08-10T23:26:54.647Z,1.80
2022-08-10T23:29:21.049Z,1.85
2022-08-10T23:32:06.932Z,1.77
2022-08-10T23:34:33.999Z,1.98
2022-08-10T23:37:00.456Z,1.86
2022-08-10T23:39:27.733Z,1.83
2022-08-10T23:41:54.181Z,1.81
2022-08-10T23:44:21.015Z,1.89
2022-08-10T23:46:47.636Z,1.89
2022-08-10T23:49:14.023Z,1.96
2022-08-10T23:51:56.430Z,1.93
2022-08-10T23:54:23.131Z,2.00
2022-08-10T23:56:49.592Z,1.78
2022-08-10T23:59:15.976Z,1.89
